createdAt,value
2022-09-18T00:00:00.000Z,9.87
2022-09-18T00:15:00.000Z,9.91
2022-09-18T00:30:00.000Z,9.95
2022-09-18T00:45:00.000Z,10.06
2022-09-18T01:00:00.000Z,10.16
2022-09-18T01:15:00.000Z,10.16
2022-09-18T01:30:00.000Z,10.18
2022-09-18T01:45:00.000Z,10.28
2022-09-18T02:00:00.000Z,10.32
2022-09-18T02:15:00.000Z,10.29
2022-09-18T02:45:00.000Z,10.37
2022-09-18T02:45:00.000Z,10.39
2022-09-18T03:00:00.000Z,10.47
2022-09-18T03:15:00.000Z,10.4
2022-09-18T03:30:00.000Z,10.41
2022-09-18T03:45:00.000Z,10.41
2022-09-18T04:00:00.000Z,10.56
2022-09-18T04:15:00.000Z,10.74
2022-09-18T04:30:00.000Z,10.84
2022-09-18T04:45:00.000Z,10.87
2022-09-18T05:00:00.000Z,10.92
2022-09-18T05:15:00.000Z,10.85
2022-09-18T05:30:00.000Z,10.58
2022-09-18T05:45:00.000Z,10.63
2022-09-18T06:00:00.000Z,10.76
2022-09-18T06:15:00.000Z,10.93
2022-09-18T06:30:00.000Z,10.65
2022-09-18T06:45:00.000Z,10.45
2022-09-18T07:00:00.000Z,10.63
2022-09-18T07:15:00.000Z,10.96
2022-09-18T07:30:00.000Z,11.08
2022-09-18T07:45:00.000Z,11.1
2022-09-18T08:00:00.000Z,11.17
2022-09-18T08:15:00.000Z,11.42
2022-09-18T08:30:00.000Z,11.54
2022-09-18T08:45:00.000Z,11.65
2022-09-18T09:00:00.000Z,11.57
2022-09-18T09:15:00.000Z,11.48
2022-09-18T09:30:00.000Z,11.33
2022-09-18T09:45:00.000Z,11.31
2022-09-18T10:00:00.000Z,11.14
2022-09-18T10:15:00.000Z,11.03
2022-09-18T10:30:00.000Z,11.09
2022-09-18T10:45:00.000Z,11.17
2022-09-18T11:00:00.000Z,11.14
2022-09-18T11:15:00.000Z,11.25
2022-09-18T11:30:00.000Z,11.52
2022-09-18T11:45:00.000Z,11.73
2022-09-18T12:00:00.000Z,11.9
2022-09-18T12:15:00.000Z,12.03
2022-09-18T12:30:00.000Z,12.31
2022-09-18T12:45:00.000Z,12.66
2022-09-18T13:00:00.000Z,12.73
2022-09-18T13:15:00.000Z,13.1
2022-09-18T13:30:00.000Z,13.36
2022-09-18T13:45:00.000Z,13.19
2022-09-18T14:00:00.000Z,12.87
2022-09-18T14:15:00.000Z,12.56
2022-09-18T14:30:00.000Z,12.27
2022-09-18T14:45:00.000Z,11.77
2022-09-18T15:00:00.000Z,11.37
2022-09-18T15:15:00.000Z,11.57
2022-09-18T15:30:00.000Z,11.88
2022-09-18T15:45:00.000Z,12.04
2022-09-18T16:00:00.000Z,11.98
2022-09-18T16:15:00.000Z,11.72
2022-09-18T16:30:00.000Z,11.67
2022-09-18T16:45:00.000Z,11.69
2022-09-18T17:00:00.000Z,11.7
2022-09-18T17:15:00.000Z,11.67
2022-09-18T17:30:00.000Z,11.65
2022-09-18T17:45:00.000Z,11.57
2022-09-18T18:00:00.000Z,11.55
2022-09-18T18:15:00.000Z,11.48
2022-09-18T18:30:00.000Z,11.37
2022-09-18T18:45:00.000Z,11.34
2022-09-18T19:00:00.000Z,11.24
2022-09-18T19:15:00.000Z,11.18
2022-09-18T19:30:00.000Z,11.11
2022-09-18T19:45:00.000Z,11.09
2022-09-18T20:00:00.000Z,11.04
2022-09-18T20:15:00.000Z,11.08
2022-09-18T20:30:00.000Z,11.11
2022-09-18T21:00:00.000Z,11.03
2022-09-18T21:00:00.000Z,11.06
2022-09-18T21:15:00.000Z,10.96
2022-09-18T21:30:00.000Z,10.94
2022-09-18T21:45:00.000Z,10.97
2022-09-18T22:00:00.000Z,10.93
2022-09-18T22:15:00.000Z,11
2022-09-18T22:30:00.000Z,11.21
2022-09-18T22:45:00.000Z,11.7
2022-09-18T23:00:00.000Z,12.03
2022-09-18T23:15:00.000Z,12.37
2022-09-18T23:30:00.000Z,12.09
2022-09-18T23:45:00.000Z,10.96
